createdAt,value
2018-05-13T00:02:46.843Z,9.38
2018-05-13T00:06:47.469Z,10.85
2018-05-13T00:12:47.904Z,12.67
2018-05-13T00:18:48.405Z,12.12
2018-05-13T00:22:49.039Z,10.42
2018-05-13T00:28:49.598Z,12.49
2018-05-13T00:32:50.147Z,10.7
2018-05-13T00:34:50.648Z,12.21
2018-05-13T00:38:51.246Z,11.39
2018-05-13T00:44:51.727Z,9.8
2018-05-13T00:48:52.159Z,10.39
2018-05-13T00:54:52.752Z,10.81
2018-05-13T00:58:53.393Z,11.05
2018-05-13T01:00:53.876Z,11.67
2018-05-13T01:04:54.382Z,11.07
2018-05-13T01:10:54.933Z,10.35
2018-05-13T01:14:55.514Z,12.2
2018-05-13T01:20:56.062Z,12.69
2018-05-13T01:26:56.608Z,10.46
2018-05-13T01:30:57.229Z,11.7
2018-05-13T01:36:57.738Z,8.87
2018-05-13T01:40:58.271Z,10.49
2018-05-13T01:46:58.844Z,12.49
2018-05-13T01:52:59.363Z,10.03
2018-05-13T01:56:59.927Z,12.27
2018-05-13T02:03:00.377Z,9.46
2018-05-13T02:07:00.931Z,10.22
2018-05-13T02:09:01.333Z,9.56
2018-05-13T02:13:01.895Z,10.52
2018-05-13T02:19:02.551Z,12.05
2018-05-13T02:23:03.039Z,11.07
2018-05-13T02:29:03.577Z,11.14
2018-05-13T02:33:04.041Z,11.53
2018-05-13T02:35:04.587Z,12.41
2018-05-13T02:39:05.090Z,10.28
2018-05-13T02:45:05.654Z,9.03
2018-05-13T02:49:06.295Z,11.28
2018-05-13T02:55:06.808Z,9.49
2018-05-13T02:59:07.274Z,9.28
2018-05-13T03:01:07.850Z,10.01
2018-05-13T03:05:08.303Z,9.76
2018-05-13T03:11:08.837Z,9.37
2018-05-13T03:15:09.401Z,11.3
2018-05-13T03:21:10.010Z,9.4
2018-05-13T03:27:10.660Z,9.64
2018-05-13T03:31:11.218Z,11.22
2018-05-13T03:37:11.726Z,12.5
2018-05-13T03:41:12.299Z,11.73
2018-05-13T03:47:12.824Z,12.09
2018-05-13T03:53:13.331Z,11.52
2018-05-13T03:57:13.883Z,12.43
2018-05-13T04:03:14.478Z,10.3
2018-05-13T04:07:14.989Z,11.91
2018-05-13T04:09:15.483Z,11.8
2018-05-13T04:13:16.003Z,12.5
2018-05-13T04:19:16.575Z,10.48
2018-05-13T04:23:17.099Z,11.34
2018-05-13T04:29:17.612Z,13.1
2018-05-13T04:33:18.148Z,14.52
2018-05-13T04:35:18.652Z,13.59
2018-05-13T04:39:19.195Z,14.22
2018-05-13T04:45:20.011Z,10.47
2018-05-13T04:49:20.534Z,12.04
2018-05-13T04:55:21.151Z,9.24
2018-05-13T04:59:21.663Z,12.5
2018-05-13T05:01:22.225Z,12.29
2018-05-13T05:05:22.843Z,15.77
2018-05-13T05:11:23.331Z,12.48
2018-05-13T05:15:24.099Z,10.84
2018-05-13T05:21:24.675Z,11.67
2018-05-13T05:27:25.176Z,11.72
2018-05-13T05:31:25.638Z,11.69
2018-05-13T05:37:26.139Z,14.19
2018-05-13T05:41:26.598Z,15.97
2018-05-13T05:47:27.173Z,13.35
2018-05-13T05:53:27.675Z,12.79
2018-05-13T05:57:28.156Z,14.23
2018-05-13T06:03:28.774Z,13.62
2018-05-13T06:07:29.447Z,14.59
2018-05-13T06:09:30.051Z,15.42
2018-05-13T06:13:30.462Z,14.86
2018-05-13T06:19:31.009Z,14.3
2018-05-13T06:23:31.580Z,17.7
2018-05-13T06:29:32.209Z,16.17
2018-05-13T06:33:32.777Z,12.66
2018-05-13T06:35:33.257Z,10.82
2018-05-13T06:39:33.890Z,12.93
2018-05-13T06:45:34.356Z,12.41
2018-05-13T06:49:34.886Z,14.65
2018-05-13T06:55:35.555Z,11.25
2018-05-13T06:59:36.239Z,10.57
2018-05-13T07:01:36.833Z,9.72
2018-05-13T07:05:37.313Z,8.64
2018-05-13T07:11:37.801Z,10.91
2018-05-13T07:15:38.307Z,13.14
2018-05-13T07:21:38.896Z,10.9
2018-05-13T07:27:39.438Z,10.13
2018-05-13T07:31:39.997Z,12.77
2018-05-13T07:37:41.002Z,8.42
2018-05-13T07:41:41.315Z,9.54
2018-05-13T07:47:41.742Z,10.16
2018-05-13T07:53:42.422Z,8.26
2018-05-13T07:57:42.975Z,9.72
2018-05-13T08:03:43.481Z,7.31
2018-05-13T08:07:43.943Z,9.63
2018-05-13T08:09:44.498Z,10.26
2018-05-13T08:13:44.945Z,8.77
2018-05-13T08:19:45.483Z,11.61
2018-05-13T08:23:45.969Z,10.08
2018-05-13T08:29:46.519Z,9.05
2018-05-13T08:33:47.060Z,9.3
2018-05-13T08:35:47.506Z,10.13
2018-05-13T08:39:48.041Z,11.57
2018-05-13T08:45:48.549Z,9.14
2018-05-13T08:49:49.078Z,8.58
2018-05-13T08:55:49.708Z,8.26
2018-05-13T08:59:50.177Z,11.45
2018-05-13T09:01:50.649Z,7.62
2018-05-13T09:05:51.127Z,8.92
2018-05-13T09:11:51.653Z,8.91
2018-05-13T09:15:52.216Z,10.13
2018-05-13T09:21:52.720Z,13.78
2018-05-13T09:27:53.358Z,8.54
2018-05-13T09:31:53.946Z,7.95
2018-05-13T09:37:54.586Z,11.87
2018-05-13T09:41:55.099Z,8.46
2018-05-13T09:47:55.623Z,10.22
2018-05-13T09:53:56.075Z,6.97
2018-05-13T09:57:56.590Z,8.28
2018-05-13T10:03:57.019Z,8.47
2018-05-13T10:07:57.467Z,10.41
2018-05-13T10:09:57.869Z,7.81
2018-05-13T10:13:58.434Z,8.75
2018-05-13T10:19:58.858Z,9.95
2018-05-13T10:23:59.406Z,9.24
2018-05-13T10:29:59.981Z,9.06
2018-05-13T10:34:00.501Z,8.22
2018-05-13T10:36:00.949Z,8.1
2018-05-13T10:40:01.491Z,8.5
2018-05-13T10:46:02.028Z,7.43
2018-05-13T10:50:02.725Z,7.73
2018-05-13T10:56:03.187Z,7.46
2018-05-13T11:02:03.786Z,7.88
2018-05-13T11:06:04.269Z,9.76
2018-05-13T11:12:04.874Z,5.73
2018-05-13T11:16:05.452Z,6.26
2018-05-13T11:22:06.240Z,6.17
2018-05-13T11:28:06.775Z,6.16
2018-05-13T11:32:07.373Z,7.71
2018-05-13T11:38:07.882Z,7.34
2018-05-13T11:42:08.452Z,5.87
2018-05-13T11:48:09.038Z,6.58
2018-05-13T11:54:09.551Z,6.7
2018-05-13T11:58:10.073Z,7.1
2018-05-13T12:04:10.527Z,6.27
2018-05-13T12:08:11.221Z,6.57
2018-05-13T12:10:11.606Z,5.87
2018-05-13T12:14:12.069Z,5.91
2018-05-13T12:20:12.521Z,7.15
2018-05-13T12:24:17.060Z,7.25
2018-05-13T12:30:13.918Z,6.38
2018-05-13T12:34:14.368Z,6.56
2018-05-13T12:36:15.689Z,7.14
2018-05-13T12:40:16.384Z,4.74
2018-05-13T12:46:16.953Z,6.25
2018-05-13T12:50:17.396Z,6.89
2018-05-13T12:56:17.967Z,6.58
2018-05-13T13:02:18.973Z,7.41
2018-05-13T13:06:19.501Z,6.15
2018-05-13T13:12:19.964Z,5.87
2018-05-13T13:16:20.642Z,6.01
2018-05-13T13:22:21.097Z,6.58
2018-05-13T13:28:21.768Z,6.45
2018-05-13T13:32:22.272Z,9.63
2018-05-13T13:38:22.916Z,7.13
2018-05-13T13:42:23.485Z,6.79
2018-05-13T13:44:23.879Z,7.32
2018-05-13T13:48:24.470Z,7.61
2018-05-13T13:54:24.929Z,5.87
2018-05-13T13:58:25.538Z,6.99
2018-05-13T14:04:26.255Z,7.06
2018-05-13T14:08:26.729Z,7.28
2018-05-13T14:10:27.318Z,5.88
2018-05-13T14:14:27.917Z,9.19
2018-05-13T14:20:28.597Z,6.44
2018-05-13T14:24:28.947Z,5.63
2018-05-13T14:30:29.580Z,8.25
2018-05-13T14:34:30.232Z,8.91
2018-05-13T14:36:30.720Z,7.82
2018-05-13T14:40:31.285Z,7.93
2018-05-13T14:46:31.864Z,5.89
2018-05-13T14:50:32.465Z,6.87
2018-05-13T14:56:33.095Z,4.25
2018-05-13T15:02:33.778Z,6.08
2018-05-13T15:06:34.380Z,5.56
2018-05-13T15:12:34.909Z,6.01
2018-05-13T15:16:35.449Z,5.33
2018-05-13T15:22:36.322Z,4.78
2018-05-13T15:28:36.855Z,3.89
2018-05-13T15:32:37.343Z,5.07
2018-05-13T15:38:37.957Z,3.66
2018-05-13T15:42:38.556Z,3.96
2018-05-13T15:44:38.960Z,4.02
2018-05-13T15:48:39.525Z,3.94
2018-05-13T15:54:40.102Z,4.82
2018-05-13T15:58:40.726Z,5.22
2018-05-13T16:04:41.270Z,4.02
2018-05-13T16:08:41.911Z,5.51
2018-05-13T16:10:42.400Z,6.09
2018-05-13T16:14:42.960Z,5.56
